createdAt,value
2022-08-09T00:00:30.997Z,14.40
2022-08-09T00:02:57.984Z,14.40
2022-08-09T00:06:19.654Z,14.40
2022-08-09T00:08:31.584Z,14.40
2022-08-09T00:11:00.573Z,14.10
2022-08-09T00:13:31.799Z,14.00
2022-08-09T00:16:02.372Z,14.00
2022-08-09T00:18:35.759Z,14.20
2022-08-09T00:21:05.280Z,14.10
2022-08-09T00:23:58.330Z,13.90
2022-08-09T00:26:29.574Z,13.90
2022-08-09T00:29:01.250Z,13.90
2022-08-09T00:31:57.230Z,13.90
2022-08-09T00:34:15.019Z,13.90
2022-08-09T00:36:46.485Z,13.90
2022-08-09T00:40:10.421Z,13.60
2022-08-09T00:44:14.339Z,13.60
2022-08-09T00:44:47.008Z,13.50
2022-08-09T00:47:15.607Z,13.70
2022-08-09T00:49:52.453Z,13.60
2022-08-09T00:52:30.139Z,13.50
2022-08-09T00:55:01.644Z,13.50
2022-08-09T00:57:34.914Z,13.50
2022-08-09T01:00:21.742Z,13.50
2022-08-09T01:02:53.623Z,13.40
2022-08-09T01:05:53.840Z,13.40
2022-08-09T01:08:34.793Z,13.50
2022-08-09T01:11:17.637Z,13.50
2022-08-09T01:13:59.847Z,13.40
2022-08-09T01:16:38.885Z,13.30
2022-08-09T01:19:51.640Z,13.20
2022-08-09T01:22:51.970Z,13.30
2022-08-09T01:25:37.406Z,13.30
2022-08-09T01:28:10.453Z,13.30
2022-08-09T01:30:51.709Z,13.30
2022-08-09T01:33:23.732Z,13.20
2022-08-09T01:36:04.977Z,13.10
2022-08-09T01:38:35.802Z,12.90
2022-08-09T01:41:11.909Z,12.80
2022-08-09T01:43:51.624Z,12.80
2022-08-09T01:46:29.170Z,12.90
2022-08-09T01:49:09.758Z,12.90
2022-08-09T01:51:43.065Z,13.00
2022-08-09T01:54:13.658Z,12.90
2022-08-09T01:56:44.034Z,12.70
2022-08-09T01:59:20.404Z,12.60
2022-08-09T02:01:59.087Z,12.60
2022-08-09T02:04:29.485Z,12.50
2022-08-09T02:07:18.026Z,12.50
2022-08-09T02:10:05.177Z,12.60
2022-08-09T02:12:35.106Z,12.50
2022-08-09T02:15:06.452Z,12.60
2022-08-09T02:18:01.653Z,12.40
2022-08-09T02:20:26.732Z,12.40
2022-08-09T02:23:17.820Z,12.50
2022-08-09T02:25:49.679Z,12.60
2022-08-09T02:28:27.073Z,12.60
2022-08-09T02:31:26.016Z,12.50
2022-08-09T02:34:06.417Z,12.30
2022-08-09T02:36:39.259Z,12.40
2022-08-09T02:39:33.712Z,12.30
2022-08-09T02:42:04.407Z,12.30
2022-08-09T02:44:35.971Z,12.40
2022-08-09T02:47:09.821Z,12.30
2022-08-09T02:49:41.890Z,12.30
2022-08-09T02:52:14.987Z,12.20
2022-08-09T02:54:54.027Z,12.10
2022-08-09T02:57:23.961Z,12.10
2022-08-09T03:00:20.428Z,12.10
2022-08-09T03:02:57.993Z,12.10
2022-08-09T03:05:28.037Z,12.10
2022-08-09T03:07:55.808Z,12.10
2022-08-09T03:10:24.026Z,12.00
2022-08-09T03:12:52.278Z,11.90
2022-08-09T03:15:20.808Z,11.80
2022-08-09T03:17:58.025Z,11.70
2022-08-09T03:20:29.550Z,11.60
2022-08-09T03:23:06.523Z,11.70
2022-08-09T03:25:58.307Z,11.80
2022-08-09T03:28:30.609Z,11.70
2022-08-09T03:30:59.309Z,11.70
2022-08-09T03:33:53.219Z,11.60
2022-08-09T03:36:19.090Z,11.60
2022-08-09T03:38:47.729Z,11.70
2022-08-09T03:41:18.388Z,11.60
2022-08-09T03:44:03.956Z,11.50
2022-08-09T03:46:34.635Z,11.60
2022-08-09T03:49:04.300Z,11.60
2022-08-09T03:51:56.867Z,11.60
2022-08-09T03:54:32.159Z,11.70
2022-08-09T03:57:02.234Z,11.80
2022-08-09T03:59:43.150Z,11.70
2022-08-09T04:02:19.469Z,11.50
2022-08-09T04:04:53.639Z,11.50
2022-08-09T04:07:20.284Z,11.50
2022-08-09T04:09:53.731Z,11.60
2022-08-09T04:12:44.602Z,11.50
2022-08-09T04:15:29.461Z,11.40
2022-08-09T04:17:59.194Z,11.20
2022-08-09T04:20:25.963Z,11.30
2022-08-09T04:22:52.728Z,11.30
2022-08-09T04:25:19.404Z,11.30
2022-08-09T04:27:49.013Z,11.40
2022-08-09T04:30:18.003Z,11.30
2022-08-09T04:32:47.713Z,11.30
2022-08-09T04:35:15.317Z,11.20
2022-08-09T04:37:45.647Z,11.20
2022-08-09T04:40:19.271Z,11.30
2022-08-09T04:42:56.784Z,11.30
2022-08-09T04:45:23.766Z,11.50
2022-08-09T04:47:59.347Z,11.40
2022-08-09T04:50:33.714Z,11.20
2022-08-09T04:53:13.277Z,11.10
2022-08-09T04:55:58.222Z,11.10
2022-08-09T04:58:27.473Z,11.20
2022-08-09T05:00:55.157Z,11.40
2022-08-09T05:03:41.131Z,11.50
2022-08-09T05:06:27.141Z,11.70
2022-08-09T05:09:00.754Z,11.70
2022-08-09T05:11:32.373Z,11.80
2022-08-09T05:14:06.066Z,11.90
2022-08-09T05:16:43.564Z,12.00
2022-08-09T05:19:24.486Z,11.80
2022-08-09T05:21:55.493Z,11.80
2022-08-09T05:24:24.199Z,11.70
2022-08-09T05:26:51.439Z,11.90
2022-08-09T05:29:21.924Z,12.10
2022-08-09T05:31:57.354Z,12.10
2022-08-09T05:34:30.926Z,12.30
2022-08-09T05:37:06.153Z,12.40
2022-08-09T05:39:43.322Z,12.50
2022-08-09T05:42:21.605Z,12.80
2022-08-09T05:44:51.656Z,12.90
2022-08-09T05:47:21.756Z,13.10
2022-08-09T05:50:25.968Z,13.20
2022-08-09T05:52:38.537Z,13.80
2022-08-09T05:55:07.268Z,14.70
2022-08-09T05:57:55.861Z,15.60
2022-08-09T06:00:23.354Z,16.30
2022-08-09T06:02:54.398Z,17.20
2022-08-09T06:05:49.790Z,17.60
2022-08-09T06:08:11.193Z,18.50
2022-08-09T06:10:38.571Z,19.20
2022-08-09T06:13:12.162Z,19.60
2022-08-09T06:15:44.914Z,20.30
2022-08-09T06:18:14.123Z,20.40
2022-08-09T06:20:42.917Z,20.70
2022-08-09T06:23:16.738Z,21.30
2022-08-09T06:25:43.510Z,20.50
2022-08-09T06:28:10.470Z,20.50
2022-08-09T06:30:43.361Z,20.50
2022-08-09T06:33:30.027Z,20.70
2022-08-09T06:35:58.410Z,20.80
2022-08-09T06:38:32.131Z,21.30
2022-08-09T06:41:18.205Z,22.50
2022-08-09T06:43:49.615Z,22.80
2022-08-09T06:46:39.266Z,22.40
2022-08-09T06:49:06.697Z,22.10
2022-08-09T06:51:38.927Z,22.00
2022-08-09T06:54:06.761Z,22.10
2022-08-09T06:56:39.316Z,22.80
2022-08-09T07:00:50.914Z,23.10
2022-08-09T07:02:03.935Z,24.20
2022-08-09T07:04:31.960Z,25.10
2022-08-09T07:07:00.644Z,25.60
2022-08-09T07:09:55.370Z,25.70
2022-08-09T07:12:17.915Z,25.70
2022-08-09T07:14:51.159Z,26.20
2022-08-09T07:17:19.729Z,26.20
2022-08-09T07:19:48.163Z,25.60
2022-08-09T07:22:18.317Z,25.00
2022-08-09T07:24:49.356Z,24.90
2022-08-09T07:27:26.695Z,25.30
2022-08-09T07:30:02.631Z,25.50
2022-08-09T07:32:33.624Z,26.60
2022-08-09T07:35:08.043Z,27.40
2022-08-09T07:37:44.442Z,27.60
2022-08-09T07:40:18.663Z,28.50
2022-08-09T07:43:00.261Z,28.70
2022-08-09T07:45:39.662Z,28.80
2022-08-09T07:48:25.698Z,29.10
2022-08-09T07:51:09.686Z,30.10
2022-08-09T07:54:04.321Z,30.30
2022-08-09T07:56:33.738Z,30.70
2022-08-09T07:59:00.604Z,30.70
2022-08-09T08:01:32.856Z,30.50
2022-08-09T08:04:00.187Z,31.30
2022-08-09T08:06:32.100Z,31.60
2022-08-09T08:09:04.490Z,31.40
2022-08-09T08:12:09.829Z,31.90
2022-08-09T08:14:18.910Z,31.60
2022-08-09T08:16:51.132Z,31.60
2022-08-09T08:19:34.244Z,32.00
2022-08-09T08:22:02.067Z,31.90
2022-08-09T08:24:35.462Z,32.10
2022-08-09T08:27:16.483Z,32.70
2022-08-09T08:29:48.549Z,33.30
2022-08-09T08:32:24.486Z,34.00
2022-08-09T08:34:58.622Z,34.50
2022-08-09T08:37:41.110Z,34.10
2022-08-09T08:40:16.377Z,34.40
2022-08-09T08:42:47.250Z,34.30
2022-08-09T08:45:16.457Z,34.30
2022-08-09T08:47:45.089Z,34.70
2022-08-09T08:50:18.093Z,34.30
2022-08-09T08:53:00.015Z,34.00
2022-08-09T08:55:28.069Z,33.80
2022-08-09T08:57:57.255Z,35.10
2022-08-09T09:00:30.146Z,35.60
2022-08-09T09:03:11.215Z,35.10
2022-08-09T09:05:58.134Z,34.80
2022-08-09T09:08:38.072Z,35.00
2022-08-09T09:11:17.394Z,34.80
2022-08-09T09:13:55.778Z,35.00
2022-08-09T09:16:30.593Z,35.70
2022-08-09T09:19:22.545Z,36.30
2022-08-09T09:22:03.977Z,36.90
2022-08-09T09:24:43.400Z,36.80
2022-08-09T09:27:22.101Z,37.00
2022-08-09T09:30:23.783Z,37.00
2022-08-09T09:33:16.590Z,36.90
2022-08-09T09:36:01.703Z,36.30
2022-08-09T09:38:45.648Z,36.80
2022-08-09T09:41:33.534Z,37.20
2022-08-09T09:44:11.470Z,36.90
2022-08-09T09:46:51.812Z,37.60
2022-08-09T09:49:56.143Z,38.50
2022-08-09T09:52:16.767Z,39.00
2022-08-09T09:55:16.410Z,38.30
2022-08-09T09:58:16.878Z,37.70
2022-08-09T10:01:04.336Z,37.60
2022-08-09T10:03:42.946Z,37.60
2022-08-09T10:06:12.475Z,37.20
2022-08-09T10:08:54.745Z,37.30
2022-08-09T10:11:59.525Z,37.70
2022-08-09T10:14:33.199Z,37.40
2022-08-09T10:17:39.263Z,37.40
2022-08-09T10:19:58.914Z,37.50
2022-08-09T10:22:35.626Z,37.70
2022-08-09T10:25:10.928Z,37.60
2022-08-09T10:27:55.897Z,37.90
2022-08-09T10:34:08.869Z,38.40
2022-08-09T10:36:01.232Z,38.00
2022-08-09T10:38:55.032Z,38.10
2022-08-09T10:41:17.845Z,38.50
2022-08-09T10:43:59.308Z,38.80
2022-08-09T10:48:13.482Z,38.90
2022-08-09T10:50:14.987Z,39.10
2022-08-09T10:53:10.273Z,39.70
2022-08-09T10:55:57.768Z,40.10
2022-08-09T10:58:33.564Z,39.90
2022-08-09T11:03:03.191Z,39.60
2022-08-09T11:04:27.778Z,40.10
2022-08-09T11:07:03.599Z,40.50
2022-08-09T11:09:47.414Z,40.60
2022-08-09T11:12:29.689Z,41.10
2022-08-09T11:15:24.016Z,41.50
2022-08-09T11:18:02.852Z,41.30
2022-08-09T11:20:49.754Z,40.40
2022-08-09T11:23:17.051Z,40.40
2022-08-09T11:25:50.931Z,41.00
2022-08-09T11:28:34.570Z,41.10
2022-08-09T11:31:04.391Z,40.00
2022-08-09T11:33:48.393Z,39.80
2022-08-09T11:36:30.376Z,40.00
2022-08-09T11:39:03.413Z,39.70
2022-08-09T11:41:38.200Z,39.60
2022-08-09T11:44:08.070Z,38.60
2022-08-09T11:46:57.113Z,38.70
2022-08-09T11:50:54.982Z,39.10
2022-08-09T11:53:58.999Z,39.90
2022-08-09T11:56:14.449Z,41.10
2022-08-09T11:58:51.322Z,40.80
2022-08-09T12:02:00.904Z,41.00
2022-08-09T12:04:20.660Z,41.00
2022-08-09T12:06:58.755Z,41.30
2022-08-09T12:09:33.985Z,41.00
2022-08-09T12:12:05.922Z,39.20
2022-08-09T12:15:03.688Z,38.20
2022-08-09T12:17:34.761Z,38.10
2022-08-09T12:20:21.556Z,38.30
2022-08-09T12:22:51.223Z,37.90
2022-08-09T12:25:31.896Z,38.20
2022-08-09T12:29:12.074Z,37.90
2022-08-09T12:30:59.753Z,38.10
2022-08-09T12:33:51.176Z,38.30
2022-08-09T12:36:27.586Z,38.10
2022-08-09T12:38:59.495Z,38.40
2022-08-09T12:41:38.332Z,38.10
2022-08-09T12:44:07.882Z,36.80
2022-08-09T12:46:41.483Z,35.60
2022-08-09T12:49:10.697Z,34.70
2022-08-09T12:51:59.905Z,34.30
2022-08-09T12:54:26.092Z,35.10
2022-08-09T12:56:54.350Z,36.00
2022-08-09T12:59:23.357Z,36.30
2022-08-09T13:01:59.364Z,36.60
2022-08-09T13:04:36.609Z,36.70
2022-08-09T13:07:19.882Z,36.90
2022-08-09T13:10:02.601Z,35.90
2022-08-09T13:12:29.740Z,35.50
2022-08-09T13:15:07.353Z,35.10
2022-08-09T13:18:03.108Z,34.40
2022-08-09T13:20:37.871Z,33.60
2022-08-09T13:24:07.199Z,32.70
2022-08-09T13:26:50.865Z,32.40
2022-08-09T13:29:28.515Z,32.70
2022-08-09T13:32:15.664Z,33.00
2022-08-09T13:34:45.089Z,33.50
2022-08-09T13:37:13.889Z,34.00
2022-08-09T13:41:31.191Z,34.20
2022-08-09T13:42:40.940Z,34.30
2022-08-09T13:45:12.272Z,34.40
2022-08-09T13:47:48.971Z,34.40
2022-08-09T13:50:30.268Z,34.60
2022-08-09T13:52:58.309Z,34.40
2022-08-09T13:55:24.982Z,34.30
2022-08-09T13:57:59.600Z,34.20
2022-08-09T14:00:29.021Z,34.30
2022-08-09T14:03:03.305Z,34.20
2022-08-09T14:05:58.314Z,34.20
2022-08-09T14:08:29.926Z,34.10
2022-08-09T14:10:57.320Z,34.10
2022-08-09T14:14:14.919Z,34.30
2022-08-09T14:16:15.899Z,34.10
2022-08-09T14:18:49.318Z,33.80
2022-08-09T14:21:22.640Z,33.80
2022-08-09T14:23:53.675Z,33.70
2022-08-09T14:26:21.762Z,33.60
2022-08-09T14:28:48.473Z,33.30
2022-08-09T14:31:15.151Z,33.00
2022-08-09T14:33:42.132Z,32.60
2022-08-09T14:36:20.875Z,32.40
2022-08-09T14:38:52.558Z,32.20
2022-08-09T14:41:39.781Z,32.20
2022-08-09T14:44:07.393Z,32.50
2022-08-09T14:47:00.985Z,32.40
2022-08-09T14:49:25.578Z,32.20
2022-08-09T14:51:58.200Z,32.10
2022-08-09T14:54:27.751Z,32.20
2022-08-09T14:56:58.933Z,32.40
2022-08-09T14:59:29.092Z,32.30
2022-08-09T15:01:57.404Z,32.50
2022-08-09T15:04:25.356Z,32.80
2022-08-09T15:06:52.242Z,32.90
2022-08-09T15:09:30.490Z,32.90
2022-08-09T15:12:08.145Z,32.80
2022-08-09T15:14:38.662Z,33.00
2022-08-09T15:17:09.509Z,33.00
2022-08-09T15:19:36.937Z,32.90
2022-08-09T15:22:22.047Z,32.60
2022-08-09T15:24:53.168Z,32.30
2022-08-09T15:27:19.797Z,32.20
2022-08-09T15:30:55.646Z,31.90
2022-08-09T15:32:33.409Z,32.00
2022-08-09T15:35:00.719Z,31.80
2022-08-09T15:37:37.702Z,31.50
2022-08-09T15:40:22.923Z,31.40
2022-08-09T15:42:52.948Z,31.10
2022-08-09T15:45:21.434Z,31.10
2022-08-09T15:48:02.518Z,31.10
2022-08-09T15:50:34.704Z,31.10
2022-08-09T15:53:18.526Z,31.10
2022-08-09T15:56:10.980Z,31.10
2022-08-09T15:58:39.919Z,31.00
2022-08-09T16:01:08.204Z,31.00
2022-08-09T16:03:38.559Z,31.10
2022-08-09T16:06:29.501Z,31.20
2022-08-09T16:08:56.722Z,31.20
2022-08-09T16:11:30.006Z,31.20
2022-08-09T16:14:03.759Z,31.20
2022-08-09T16:16:32.701Z,31.20
2022-08-09T16:19:01.425Z,31.20
2022-08-09T16:21:31.761Z,31.10
2022-08-09T16:24:02.262Z,30.90
2022-08-09T16:26:33.684Z,30.90
2022-08-09T16:29:13.619Z,30.90
2022-08-09T16:32:18.709Z,31.10
2022-08-09T16:34:55.384Z,31.10
2022-08-09T16:37:53.921Z,31.00
2022-08-09T16:40:10.012Z,30.80
2022-08-09T16:42:37.404Z,30.60
2022-08-09T16:45:06.188Z,30.50
2022-08-09T16:48:39.892Z,30.40
2022-08-09T16:50:29.072Z,30.30
2022-08-09T16:52:59.885Z,30.10
2022-08-09T16:55:26.591Z,30.00
2022-08-09T16:58:09.223Z,29.80
2022-08-09T17:00:41.900Z,29.70
2022-08-09T17:03:22.233Z,29.50
2022-08-09T17:06:07.949Z,29.50
2022-08-09T17:08:59.995Z,29.30
2022-08-09T17:11:37.652Z,29.40
2022-08-09T17:14:26.283Z,29.30
2022-08-09T17:16:59.475Z,29.20
2022-08-09T17:19:47.704Z,29.20
2022-08-09T17:22:15.219Z,29.10
2022-08-09T17:24:47.911Z,29.10
2022-08-09T17:27:22.368Z,29.10
2022-08-09T17:29:50.661Z,29.10
2022-08-09T17:32:20.313Z,29.10
2022-08-09T17:35:00.827Z,29.00
2022-08-09T17:37:31.118Z,29.00
2022-08-09T17:40:18.073Z,29.00
2022-08-09T17:42:55.403Z,29.10
2022-08-09T17:45:37.660Z,29.10
2022-08-09T17:48:12.506Z,29.10
2022-08-09T17:50:39.271Z,29.00
2022-08-09T17:53:10.293Z,28.80
2022-08-09T17:55:49.364Z,28.80
2022-08-09T17:58:18.881Z,28.70
2022-08-09T18:00:47.910Z,28.60
2022-08-09T18:03:18.025Z,28.50
2022-08-09T18:05:45.450Z,28.40
2022-08-09T18:08:21.814Z,28.40
2022-08-09T18:10:55.054Z,28.30
2022-08-09T18:13:53.755Z,28.20
2022-08-09T18:16:15.032Z,28.10
2022-08-09T18:18:48.904Z,28.00
2022-08-09T18:21:23.790Z,27.80
2022-08-09T18:24:10.591Z,27.70
2022-08-09T18:26:46.595Z,27.60
2022-08-09T18:30:38.671Z,27.40
2022-08-09T18:32:11.659Z,27.20
2022-08-09T18:34:39.630Z,27.00
2022-08-09T18:37:10.224Z,26.80
2022-08-09T18:39:54.026Z,26.50
2022-08-09T18:42:21.083Z,26.30
2022-08-09T18:44:55.763Z,26.10
2022-08-09T18:47:27.571Z,25.80
2022-08-09T18:49:59.886Z,25.50
2022-08-09T18:52:34.631Z,25.40
2022-08-09T18:55:03.317Z,25.30
2022-08-09T18:57:42.873Z,25.00
2022-08-09T19:00:11.515Z,24.90
2022-08-09T19:02:44.558Z,24.60
2022-08-09T19:05:19.664Z,24.40
2022-08-09T19:08:04.655Z,24.30
2022-08-09T19:10:37.126Z,24.30
2022-08-09T19:13:17.198Z,24.10
2022-08-09T19:15:49.318Z,24.10
2022-08-09T19:18:33.404Z,24.00
2022-08-09T19:21:09.516Z,23.80
2022-08-09T19:24:33.532Z,23.70
2022-08-09T19:26:31.558Z,23.50
2022-08-09T19:29:03.234Z,23.40
2022-08-09T19:31:45.067Z,23.40
2022-08-09T19:34:21.637Z,23.30
2022-08-09T19:36:51.121Z,23.30
2022-08-09T19:39:21.003Z,23.20
2022-08-09T19:42:04.815Z,23.00
2022-08-09T19:44:31.434Z,22.80
2022-08-09T19:46:58.372Z,22.70
2022-08-09T19:50:05.318Z,22.70
2022-08-09T19:52:12.504Z,22.40
2022-08-09T19:54:39.796Z,22.20
2022-08-09T19:57:08.448Z,22.10
2022-08-09T19:59:59.762Z,22.00
2022-08-09T20:04:11.079Z,22.00
2022-08-09T20:05:15.024Z,21.90
2022-08-09T20:07:57.039Z,21.80
2022-08-09T20:10:34.679Z,21.80
2022-08-09T20:13:05.133Z,21.60
2022-08-09T20:16:32.973Z,21.50
2022-08-09T20:18:19.702Z,21.40
2022-08-09T20:20:47.000Z,21.30
2022-08-09T20:23:13.763Z,21.30
2022-08-09T20:25:52.268Z,21.20
2022-08-09T20:28:27.657Z,21.00
2022-08-09T20:31:00.886Z,20.90
2022-08-09T20:33:29.590Z,20.80
2022-08-09T20:36:09.001Z,20.60
2022-08-09T20:39:18.813Z,20.50
2022-08-09T20:41:32.542Z,20.50
2022-08-09T20:44:05.017Z,20.30
2022-08-09T20:46:44.525Z,20.30
2022-08-09T20:49:13.120Z,20.30
2022-08-09T20:51:41.473Z,20.20
2022-08-09T20:54:12.710Z,20.10
2022-08-09T20:56:49.677Z,20.00
2022-08-09T20:59:50.333Z,20.10
2022-08-09T21:02:09.999Z,20.00
2022-08-09T21:05:52.669Z,19.90
2022-08-09T21:07:24.877Z,19.80
2022-08-09T21:10:06.096Z,19.70
2022-08-09T21:12:37.678Z,19.50
2022-08-09T21:15:04.983Z,19.30
2022-08-09T21:18:22.111Z,19.40
2022-08-09T21:20:26.105Z,19.30
2022-08-09T21:22:54.559Z,19.40
2022-08-09T21:25:43.826Z,19.40
2022-08-09T21:28:34.657Z,19.50
2022-08-09T21:31:16.596Z,19.50
2022-08-09T21:33:52.158Z,19.40
2022-08-09T21:36:23.045Z,19.30
2022-08-09T21:38:57.413Z,19.50
2022-08-09T21:42:04.435Z,19.30
2022-08-09T21:44:32.904Z,19.30
2022-08-09T21:47:07.659Z,19.10
2022-08-09T21:49:39.721Z,19.00
2022-08-09T21:52:15.116Z,19.00
2022-08-09T21:54:49.729Z,19.00
2022-08-09T21:57:39.242Z,19.00
2022-08-09T22:00:18.125Z,19.00
2022-08-09T22:02:58.256Z,18.80
2022-08-09T22:05:36.174Z,18.70
2022-08-09T22:08:14.821Z,18.60
2022-08-09T22:11:01.013Z,18.40
2022-08-09T22:13:43.469Z,18.30
2022-08-09T22:16:11.812Z,18.20
2022-08-09T22:18:53.758Z,18.20
2022-08-09T22:21:45.139Z,18.20
2022-08-09T22:24:24.181Z,18.10
2022-08-09T22:26:55.050Z,18.00
2022-08-09T22:29:28.839Z,17.90
2022-08-09T22:31:59.148Z,17.80
2022-08-09T22:34:26.818Z,17.80
2022-08-09T22:36:55.442Z,17.70
2022-08-09T22:39:55.838Z,17.70
2022-08-09T22:42:21.292Z,17.60
2022-08-09T22:45:02.482Z,17.60
2022-08-09T22:48:11.474Z,17.40
2022-08-09T22:50:31.941Z,17.30
2022-08-09T22:53:03.280Z,17.30
2022-08-09T22:56:07.140Z,17.30
2022-08-09T22:58:20.461Z,17.20
2022-08-09T23:00:58.322Z,17.20
2022-08-09T23:04:02.628Z,17.00
2022-08-09T23:06:14.359Z,17.00
2022-08-09T23:08:44.476Z,16.90
2022-08-09T23:11:19.354Z,16.80
2022-08-09T23:13:51.814Z,16.60
2022-08-09T23:16:20.592Z,16.60
2022-08-09T23:18:47.331Z,16.50
2022-08-09T23:21:15.891Z,16.50
2022-08-09T23:23:57.771Z,16.50
2022-08-09T23:26:32.524Z,16.40
2022-08-09T23:28:59.268Z,16.40
2022-08-09T23:31:25.911Z,16.40
2022-08-09T23:33:52.551Z,16.50
2022-08-09T23:36:19.189Z,16.40
2022-08-09T23:38:48.498Z,16.30
2022-08-09T23:41:28.912Z,16.30
2022-08-09T23:44:00.308Z,16.20
2022-08-09T23:46:28.488Z,16.00
2022-08-09T23:48:56.061Z,16.00
2022-08-09T23:51:22.800Z,16.00
2022-08-09T23:53:50.458Z,16.00
2022-08-09T23:56:18.931Z,15.80
2022-08-09T23:59:05.689Z,15.80
